createdAt,value
2019-04-29T00:00:49.074Z,3.10
2019-04-29T00:01:26.054Z,2.83
2019-04-29T00:02:02.197Z,3.73
2019-04-29T00:02:38.378Z,3.47
2019-04-29T00:03:14.539Z,3.10
2019-04-29T00:03:50.783Z,3.40
2019-04-29T00:04:27.014Z,2.77
2019-04-29T00:05:04.706Z,3.40
2019-04-29T00:05:40.890Z,2.93
2019-04-29T00:06:17.052Z,3.60
2019-04-29T00:06:53.257Z,3.10
2019-04-29T00:07:29.401Z,2.80
2019-04-29T00:08:05.479Z,3.37
2019-04-29T00:08:41.720Z,3.40
2019-04-29T00:09:19.226Z,3.67
2019-04-29T00:09:55.319Z,4.20
2019-04-29T00:10:31.501Z,3.03
2019-04-29T00:11:07.652Z,3.23
2019-04-29T00:11:43.800Z,2.83
2019-04-29T00:12:20.197Z,3.20
2019-04-29T00:12:56.365Z,2.70
2019-04-29T00:13:32.525Z,2.53
2019-04-29T00:14:09.903Z,3.80
2019-04-29T00:14:54.243Z,3.20
2019-04-29T00:15:52.142Z,3.73
2019-04-29T00:16:40.141Z,3.00
2019-04-29T00:17:21.664Z,3.50
2019-04-29T00:18:01.132Z,3.03
2019-04-29T00:18:56.103Z,4.00
2019-04-29T00:19:40.123Z,3.53
2019-04-29T00:20:37.823Z,3.73
2019-04-29T00:21:13.906Z,3.13
2019-04-29T00:21:50.265Z,3.60
2019-04-29T00:22:26.456Z,3.57
2019-04-29T00:23:02.598Z,3.50
2019-04-29T00:23:38.634Z,3.57
2019-04-29T00:24:14.753Z,3.80
2019-04-29T00:24:50.884Z,2.90
2019-04-29T00:25:27.029Z,4.10
2019-04-29T00:26:03.285Z,3.10
2019-04-29T00:26:40.112Z,4.07
2019-04-29T00:27:16.468Z,3.90
2019-04-29T00:27:52.523Z,3.30
2019-04-29T00:28:28.640Z,3.30
2019-04-29T00:29:04.927Z,3.60
2019-04-29T00:29:43.804Z,3.80
2019-04-29T00:30:22.253Z,3.90
2019-04-29T00:30:58.387Z,3.73
2019-04-29T00:31:34.493Z,3.60
2019-04-29T00:32:11.614Z,3.60
2019-04-29T00:32:47.756Z,3.13
2019-04-29T00:33:23.999Z,3.87
2019-04-29T00:34:00.091Z,3.97
2019-04-29T00:34:36.155Z,3.70
2019-04-29T00:35:12.237Z,3.77
2019-04-29T00:35:48.456Z,3.90
2019-04-29T00:36:26.465Z,4.57
2019-04-29T00:37:21.588Z,3.13
2019-04-29T00:38:31.393Z,3.97
2019-04-29T00:39:45.159Z,3.17
2019-04-29T00:40:40.148Z,4.37
2019-04-29T00:41:40.980Z,3.50
2019-04-29T00:42:35.935Z,4.10
2019-04-29T00:43:36.774Z,3.60
2019-04-29T00:44:14.439Z,3.93
2019-04-29T00:44:50.398Z,3.93
2019-04-29T00:45:27.292Z,3.20
2019-04-29T00:46:03.481Z,3.80
2019-04-29T00:46:39.749Z,4.50
2019-04-29T00:47:16.086Z,3.20
2019-04-29T00:47:52.128Z,3.83
2019-04-29T00:48:28.196Z,4.47
2019-04-29T00:49:04.727Z,4.27
2019-04-29T00:49:40.835Z,3.80
2019-04-29T00:50:16.929Z,4.13
2019-04-29T00:50:53.074Z,4.20
2019-04-29T00:51:29.348Z,3.60
2019-04-29T00:52:05.580Z,3.80
2019-04-29T00:52:41.689Z,4.33
2019-04-29T00:53:17.842Z,3.67
2019-04-29T00:53:57.504Z,3.77
2019-04-29T00:54:39.125Z,3.50
2019-04-29T00:55:18.111Z,4.27
2019-04-29T00:55:54.335Z,4.30
2019-04-29T00:56:30.512Z,3.87
2019-04-29T00:57:09.253Z,4.83
2019-04-29T00:57:45.415Z,3.77
2019-04-29T00:58:21.467Z,4.30
2019-04-29T00:58:57.595Z,3.63
2019-04-29T00:59:33.720Z,3.83
2019-04-29T01:00:11.982Z,4.07
2019-04-29T01:00:48.112Z,4.10
2019-04-29T01:01:26.065Z,3.63
2019-04-29T01:02:02.030Z,4.23
2019-04-29T01:02:38.214Z,7.50
2019-04-29T01:03:14.324Z,7.90
2019-04-29T01:03:51.151Z,11.60
2019-04-29T01:04:27.222Z,18.30
2019-04-29T01:05:03.416Z,22.23
2019-04-29T01:05:40.123Z,17.50
2019-04-29T01:06:16.295Z,18.73
2019-04-29T01:06:52.465Z,15.43
2019-04-29T01:07:28.564Z,17.13
2019-04-29T01:08:04.646Z,13.90
2019-04-29T01:08:40.841Z,12.87
2019-04-29T01:09:17.103Z,9.77
2019-04-29T01:09:53.115Z,8.67
2019-04-29T01:10:29.376Z,9.30
2019-04-29T01:11:05.435Z,8.30
2019-04-29T01:11:41.414Z,8.80
2019-04-29T01:12:17.547Z,7.77
2019-04-29T01:12:53.645Z,7.77
2019-04-29T01:13:29.729Z,7.33
2019-04-29T01:14:05.880Z,6.47
2019-04-29T01:14:42.050Z,7.17
2019-04-29T01:15:20.422Z,6.63
2019-04-29T01:15:56.555Z,7.40
2019-04-29T01:16:32.744Z,6.20
2019-04-29T01:17:08.859Z,5.80
2019-04-29T01:17:45.110Z,6.00
2019-04-29T01:18:21.179Z,4.63
2019-04-29T01:18:58.887Z,3.70
2019-04-29T01:19:35.075Z,4.60
2019-04-29T01:20:11.435Z,5.53
2019-04-29T01:20:47.750Z,4.07
2019-04-29T01:21:23.896Z,3.87
2019-04-29T01:22:00.008Z,4.17
2019-04-29T01:22:36.303Z,3.83
2019-04-29T01:23:12.408Z,5.10
2019-04-29T01:23:48.578Z,4.80
2019-04-29T01:24:24.682Z,3.87
2019-04-29T01:25:00.801Z,4.47
2019-04-29T01:25:37.044Z,4.40
2019-04-29T01:26:42.447Z,5.60
2019-04-29T01:27:22.850Z,3.97
2019-04-29T01:28:05.319Z,4.73
2019-04-29T01:28:49.340Z,4.70
2019-04-29T01:29:24.395Z,4.20
2019-04-29T01:30:00.530Z,4.13
2019-04-29T01:31:01.692Z,4.67
2019-04-29T01:31:37.935Z,4.97
2019-04-29T01:32:14.061Z,4.10
2019-04-29T01:32:50.166Z,4.57
2019-04-29T01:33:26.479Z,4.77
2019-04-29T01:34:17.680Z,4.67
2019-04-29T01:34:55.113Z,4.27
2019-04-29T01:35:31.253Z,3.93
2019-04-29T01:36:24.887Z,4.87
2019-04-29T01:37:00.978Z,5.27
2019-04-29T01:37:41.639Z,4.43
2019-04-29T01:38:17.778Z,4.37
2019-04-29T01:38:55.825Z,5.00
2019-04-29T01:39:45.354Z,4.60
2019-04-29T01:40:39.694Z,5.10
2019-04-29T01:41:18.451Z,5.33
2019-04-29T01:42:09.904Z,5.40
2019-04-29T01:42:46.196Z,4.33
2019-04-29T01:43:22.476Z,5.53
2019-04-29T01:44:08.253Z,5.00
2019-04-29T01:44:44.376Z,5.00
2019-04-29T01:45:20.552Z,4.27
2019-04-29T01:45:56.696Z,4.30
2019-04-29T01:46:32.869Z,4.57
2019-04-29T01:47:09.047Z,5.23
2019-04-29T01:47:45.160Z,5.10
2019-04-29T01:48:21.387Z,5.20
2019-04-29T01:48:57.565Z,5.20
2019-04-29T01:49:33.649Z,4.77
2019-04-29T01:50:09.821Z,4.80
2019-04-29T01:50:45.954Z,4.67
2019-04-29T01:51:22.042Z,5.73
2019-04-29T01:51:59.576Z,5.00
2019-04-29T01:52:36.740Z,4.50
2019-04-29T01:53:12.934Z,4.83
2019-04-29T01:53:49.041Z,3.80
2019-04-29T01:54:25.088Z,5.03
2019-04-29T01:55:01.231Z,4.93
2019-04-29T01:55:37.338Z,4.60
2019-04-29T01:56:13.424Z,5.70
2019-04-29T01:56:49.512Z,5.53
2019-04-29T01:57:28.392Z,5.50
2019-04-29T01:58:05.649Z,5.50
2019-04-29T01:58:41.853Z,5.00
2019-04-29T01:59:17.967Z,5.40
2019-04-29T01:59:54.009Z,5.00
2019-04-29T02:00:30.159Z,4.53
2019-04-29T02:01:06.365Z,5.43
2019-04-29T02:01:42.505Z,5.37
2019-04-29T02:02:18.776Z,5.97
2019-04-29T02:02:55.209Z,5.33
2019-04-29T02:03:31.323Z,5.63
2019-04-29T02:04:10.448Z,6.07
2019-04-29T02:04:46.645Z,6.20
2019-04-29T02:05:22.756Z,4.23
2019-04-29T02:05:59.075Z,5.40
2019-04-29T02:06:35.178Z,5.53
2019-04-29T02:07:11.185Z,5.20
2019-04-29T02:07:47.284Z,4.50
2019-04-29T02:08:24.590Z,5.00
2019-04-29T02:09:01.730Z,5.10
2019-04-29T02:09:56.679Z,6.10
2019-04-29T02:10:34.293Z,5.00
2019-04-29T02:11:10.404Z,4.90
2019-04-29T02:11:46.595Z,4.43
2019-04-29T02:12:22.536Z,5.43
2019-04-29T02:12:58.594Z,4.23
2019-04-29T02:13:34.730Z,4.60
2019-04-29T02:14:10.773Z,4.43
2019-04-29T02:14:47.004Z,4.07
2019-04-29T02:15:23.070Z,4.87
2019-04-29T02:15:59.163Z,5.30
2019-04-29T02:16:35.175Z,4.90
2019-04-29T02:17:11.332Z,5.60
2019-04-29T02:17:47.400Z,4.17
2019-04-29T02:18:23.499Z,4.70
2019-04-29T02:18:59.591Z,4.80
2019-04-29T02:19:35.686Z,4.93
2019-04-29T02:20:11.862Z,4.07
2019-04-29T02:20:50.180Z,4.20
2019-04-29T02:21:26.305Z,3.63
2019-04-29T02:22:33.199Z,4.33
2019-04-29T02:23:20.726Z,3.87
2019-04-29T02:24:27.607Z,4.33
2019-04-29T02:25:22.551Z,4.10
2019-04-29T02:25:58.556Z,4.30
2019-04-29T02:26:34.607Z,4.30
2019-04-29T02:27:10.677Z,4.33
2019-04-29T02:27:46.798Z,4.83
2019-04-29T02:28:23.043Z,4.80
2019-04-29T02:28:59.100Z,4.40
2019-04-29T02:29:35.117Z,4.90
2019-04-29T02:30:11.740Z,3.97
2019-04-29T02:30:49.575Z,3.97
2019-04-29T02:31:41.223Z,3.53
2019-04-29T02:32:17.366Z,3.53
2019-04-29T02:32:53.499Z,4.67
2019-04-29T02:33:29.873Z,3.70
2019-04-29T02:34:06.009Z,4.87
2019-04-29T02:34:42.121Z,4.60
2019-04-29T02:35:18.197Z,4.33
2019-04-29T02:35:55.782Z,4.70
2019-04-29T02:36:31.983Z,3.70
2019-04-29T02:37:09.674Z,4.37
2019-04-29T02:37:45.738Z,4.00
2019-04-29T02:38:43.522Z,4.03
2019-04-29T02:39:32.653Z,4.50
2019-04-29T02:40:15.052Z,3.83
2019-04-29T02:41:00.441Z,4.53
2019-04-29T02:41:55.535Z,4.30
2019-04-29T02:42:43.291Z,4.40
2019-04-29T02:43:22.294Z,4.97
2019-04-29T02:43:59.440Z,4.87
2019-04-29T02:44:38.334Z,3.80
2019-04-29T02:45:22.334Z,3.87
2019-04-29T02:45:59.932Z,4.40
2019-04-29T02:46:36.096Z,4.00
2019-04-29T02:47:12.184Z,4.10
2019-04-29T02:47:48.409Z,5.20
2019-04-29T02:48:29.114Z,4.00
2019-04-29T02:49:03.040Z,4.93
2019-04-29T02:49:39.085Z,4.40
2019-04-29T02:50:15.200Z,5.17
2019-04-29T02:50:51.342Z,4.80
2019-04-29T02:51:49.077Z,4.10
2019-04-29T02:52:26.076Z,4.30
2019-04-29T02:53:02.141Z,4.83
2019-04-29T02:53:38.312Z,4.20
2019-04-29T02:54:14.451Z,3.27
2019-04-29T02:54:51.514Z,3.43
2019-04-29T02:55:35.908Z,4.67
2019-04-29T02:56:11.890Z,4.13
2019-04-29T02:56:52.252Z,3.07
2019-04-29T02:57:33.781Z,4.00
2019-04-29T02:58:24.679Z,3.87
2019-04-29T02:59:05.299Z,3.13
2019-04-29T02:59:44.481Z,2.97
2019-04-29T03:00:42.748Z,2.77
2019-04-29T03:01:32.951Z,3.27
2019-04-29T03:02:24.301Z,2.50
2019-04-29T03:03:19.290Z,2.83
2019-04-29T03:04:01.926Z,2.93
2019-04-29T03:04:56.885Z,3.23
2019-04-29T03:05:40.068Z,3.00
2019-04-29T03:06:16.660Z,2.77
2019-04-29T03:06:54.278Z,2.67
2019-04-29T03:07:30.444Z,3.87
2019-04-29T03:08:06.631Z,2.30
2019-04-29T03:08:42.699Z,2.47
2019-04-29T03:09:18.804Z,2.60
2019-04-29T03:09:54.778Z,2.50
2019-04-29T03:10:30.839Z,2.10
2019-04-29T03:11:07.084Z,2.17
2019-04-29T03:11:43.306Z,2.60
2019-04-29T03:12:19.385Z,2.00
2019-04-29T03:12:57.842Z,2.50
2019-04-29T03:13:33.904Z,1.93
2019-04-29T03:14:10.692Z,2.27
2019-04-29T03:14:46.822Z,2.00
2019-04-29T03:15:32.560Z,2.70
2019-04-29T03:16:08.690Z,2.50
2019-04-29T03:16:47.693Z,2.57
2019-04-29T03:17:23.791Z,2.40
2019-04-29T03:17:59.822Z,2.23
2019-04-29T03:18:42.808Z,2.57
2019-04-29T03:19:24.242Z,1.90
2019-04-29T03:20:18.373Z,2.50
2019-04-29T03:21:22.214Z,2.20
2019-04-29T03:21:59.742Z,1.93
2019-04-29T03:22:37.598Z,1.90
2019-04-29T03:23:21.305Z,2.50
2019-04-29T03:23:57.399Z,2.50
2019-04-29T03:24:33.662Z,1.90
2019-04-29T03:25:10.761Z,1.90
2019-04-29T03:25:46.877Z,2.20
2019-04-29T03:26:23.114Z,2.13
2019-04-29T03:26:59.195Z,1.90
2019-04-29T03:27:35.320Z,2.20
2019-04-29T03:28:11.396Z,2.00
2019-04-29T03:28:47.498Z,2.10
2019-04-29T03:29:23.592Z,1.80
2019-04-29T03:29:59.771Z,1.83
2019-04-29T03:30:35.984Z,1.70
2019-04-29T03:31:12.189Z,2.40
2019-04-29T03:31:48.293Z,1.70
2019-04-29T03:32:26.701Z,2.07
2019-04-29T03:33:02.894Z,2.07
2019-04-29T03:33:39.064Z,1.60
2019-04-29T03:34:15.749Z,1.80
2019-04-29T03:34:51.862Z,2.30
2019-04-29T03:35:28.065Z,1.80
2019-04-29T03:36:04.358Z,1.97
2019-04-29T03:36:40.430Z,1.77
2019-04-29T03:37:16.675Z,1.83
2019-04-29T03:37:52.703Z,1.80
2019-04-29T03:38:28.984Z,1.70
2019-04-29T03:39:05.644Z,1.70
2019-04-29T03:39:41.740Z,1.37
2019-04-29T03:40:17.914Z,1.80
2019-04-29T03:40:54.352Z,2.20
2019-04-29T03:41:30.561Z,1.70
2019-04-29T03:42:07.544Z,1.77
2019-04-29T03:42:44.529Z,1.27
2019-04-29T03:43:21.301Z,2.00
2019-04-29T03:43:57.527Z,1.60
2019-04-29T03:44:33.776Z,1.83
2019-04-29T03:45:10.062Z,1.60
2019-04-29T03:45:46.249Z,1.40
2019-04-29T03:46:22.380Z,1.80
2019-04-29T03:46:59.526Z,1.97
2019-04-29T03:47:35.668Z,1.60
2019-04-29T03:48:11.903Z,1.67
2019-04-29T03:48:47.948Z,1.63
2019-04-29T03:49:24.074Z,1.53
2019-04-29T03:50:00.138Z,1.40
2019-04-29T03:50:36.335Z,1.70
2019-04-29T03:51:12.433Z,1.70
2019-04-29T03:51:49.317Z,1.80
2019-04-29T03:52:25.749Z,1.50
2019-04-29T03:53:01.912Z,1.80
2019-04-29T03:53:38.195Z,2.50
2019-04-29T03:54:14.607Z,1.70
2019-04-29T03:54:50.800Z,1.73
2019-04-29T03:55:38.804Z,1.67
2019-04-29T03:56:04.986Z,2.20
2019-04-29T03:56:43.963Z,2.30
2019-04-29T03:57:21.771Z,1.57
2019-04-29T03:57:59.537Z,1.53
2019-04-29T03:58:35.827Z,2.23
2019-04-29T03:59:12.145Z,1.70
2019-04-29T03:59:48.439Z,2.13
2019-04-29T04:00:24.771Z,2.10
2019-04-29T04:01:09.167Z,2.40
2019-04-29T04:02:01.181Z,2.37
2019-04-29T04:02:44.381Z,2.07
2019-04-29T04:03:39.505Z,1.63
2019-04-29T04:04:25.876Z,1.67
2019-04-29T04:05:11.503Z,2.33
2019-04-29T04:05:53.001Z,1.90
2019-04-29T04:06:43.512Z,2.03
2019-04-29T04:07:36.810Z,2.03
2019-04-29T04:08:19.142Z,2.10
2019-04-29T04:09:05.988Z,2.33
2019-04-29T04:09:37.721Z,1.70
2019-04-29T04:10:16.330Z,2.40
2019-04-29T04:10:52.703Z,2.43
2019-04-29T04:11:28.925Z,2.57
2019-04-29T04:12:05.524Z,1.80
2019-04-29T04:12:41.964Z,2.00
2019-04-29T04:13:18.133Z,2.27
2019-04-29T04:13:54.331Z,1.80
2019-04-29T04:14:30.520Z,2.30
2019-04-29T04:15:06.710Z,1.90
2019-04-29T04:15:42.954Z,2.67
2019-04-29T04:16:50.605Z,1.57
2019-04-29T04:17:50.318Z,2.00
2019-04-29T04:18:30.663Z,2.10
2019-04-29T04:19:08.251Z,2.00
2019-04-29T04:19:44.513Z,2.20
2019-04-29T04:20:21.042Z,1.97
2019-04-29T04:20:57.293Z,1.70
2019-04-29T04:21:33.441Z,2.10
2019-04-29T04:22:09.580Z,1.60
2019-04-29T04:22:49.096Z,2.17
2019-04-29T04:23:25.180Z,2.50
2019-04-29T04:24:01.307Z,2.20
2019-04-29T04:24:37.491Z,1.90
2019-04-29T04:25:14.906Z,1.97
2019-04-29T04:25:51.782Z,2.10
2019-04-29T04:26:29.284Z,2.00
2019-04-29T04:27:05.354Z,2.80
2019-04-29T04:27:41.471Z,2.13
2019-04-29T04:28:17.593Z,2.33
2019-04-29T04:28:56.766Z,2.13
2019-04-29T04:29:32.845Z,2.37
2019-04-29T04:30:09.083Z,2.40
2019-04-29T04:30:45.174Z,2.60
2019-04-29T04:31:22.746Z,2.33
2019-04-29T04:31:58.934Z,2.47
2019-04-29T04:32:35.002Z,2.10
2019-04-29T04:33:11.318Z,2.30
2019-04-29T04:33:47.501Z,1.73
2019-04-29T04:34:23.594Z,2.10
2019-04-29T04:35:01.872Z,2.40
2019-04-29T04:35:38.096Z,2.47
2019-04-29T04:36:14.223Z,2.73
2019-04-29T04:36:50.476Z,2.47
2019-04-29T04:37:26.592Z,2.37
2019-04-29T04:38:02.656Z,2.53
2019-04-29T04:38:40.296Z,2.27
2019-04-29T04:39:16.363Z,2.67
2019-04-29T04:39:52.564Z,3.10
2019-04-29T04:40:35.898Z,2.50
2019-04-29T04:41:12.048Z,2.00
2019-04-29T04:41:49.349Z,2.40
2019-04-29T04:42:29.784Z,3.00
2019-04-29T04:43:04.361Z,2.40
2019-04-29T04:43:43.037Z,2.30
2019-04-29T04:44:19.087Z,1.93
2019-04-29T04:44:55.165Z,2.93
2019-04-29T04:45:31.314Z,2.60
2019-04-29T04:46:07.490Z,2.80
2019-04-29T04:46:43.792Z,2.20
2019-04-29T04:47:20.700Z,2.30
2019-04-29T04:47:56.770Z,3.03
2019-04-29T04:48:32.883Z,2.77
2019-04-29T04:49:09.024Z,1.80
2019-04-29T04:49:45.039Z,2.33
2019-04-29T04:50:21.133Z,2.90
2019-04-29T04:50:58.398Z,1.67
2019-04-29T04:51:34.598Z,2.23
2019-04-29T04:52:10.689Z,2.00
2019-04-29T04:52:46.795Z,2.27
2019-04-29T04:53:22.895Z,2.40
2019-04-29T04:53:58.939Z,2.00
2019-04-29T04:54:35.095Z,2.47
2019-04-29T04:55:11.377Z,2.13
2019-04-29T04:55:48.303Z,2.47
2019-04-29T04:56:24.442Z,2.57
2019-04-29T04:57:00.621Z,2.20
2019-04-29T04:57:36.657Z,2.50
2019-04-29T04:58:12.698Z,2.10
2019-04-29T04:58:48.631Z,2.77
2019-04-29T04:59:24.710Z,2.30
2019-04-29T05:00:01.474Z,2.87
2019-04-29T05:00:38.016Z,2.17
2019-04-29T05:01:14.121Z,2.60
2019-04-29T05:01:50.411Z,2.77
2019-04-29T05:02:29.314Z,2.53
2019-04-29T05:03:06.898Z,2.20
2019-04-29T05:03:42.977Z,2.57
2019-04-29T05:04:19.086Z,2.73
2019-04-29T05:04:55.217Z,2.90
2019-04-29T05:05:31.622Z,2.90
2019-04-29T05:06:07.713Z,2.20
2019-04-29T05:06:43.957Z,2.70
2019-04-29T05:07:20.062Z,3.00
2019-04-29T05:07:56.183Z,2.50
2019-04-29T05:08:32.307Z,2.77
2019-04-29T05:09:08.582Z,2.63
2019-04-29T05:09:46.323Z,2.20
2019-04-29T05:10:22.487Z,2.77
2019-04-29T05:10:58.534Z,2.73
2019-04-29T05:11:34.714Z,2.80
2019-04-29T05:12:13.897Z,2.30
2019-04-29T05:12:49.856Z,2.93
2019-04-29T05:13:28.423Z,3.03
2019-04-29T05:14:03.876Z,2.53
2019-04-29T05:14:39.978Z,3.07
2019-04-29T05:15:16.308Z,2.80
2019-04-29T05:15:52.359Z,2.80
2019-04-29T05:16:28.367Z,2.97
2019-04-29T05:17:07.225Z,3.03
2019-04-29T05:17:44.786Z,3.00
2019-04-29T05:18:20.904Z,2.27
2019-04-29T05:18:57.019Z,2.83
2019-04-29T05:19:33.095Z,2.50
2019-04-29T05:20:09.231Z,2.77
2019-04-29T05:20:45.311Z,2.40
2019-04-29T05:21:21.338Z,2.80
2019-04-29T05:21:57.438Z,3.43
2019-04-29T05:22:33.574Z,2.57
2019-04-29T05:23:09.803Z,2.80
2019-04-29T05:23:45.792Z,3.37
2019-04-29T05:24:21.928Z,3.20
2019-04-29T05:24:58.064Z,2.90
2019-04-29T05:25:35.519Z,3.03
2019-04-29T05:26:12.389Z,3.33
2019-04-29T05:26:48.472Z,2.20
2019-04-29T05:27:24.622Z,2.80
2019-04-29T05:28:00.691Z,3.13
2019-04-29T05:28:37.078Z,2.57
2019-04-29T05:29:32.746Z,2.43
2019-04-29T05:30:09.030Z,3.10
2019-04-29T05:30:47.834Z,2.50
2019-04-29T05:31:23.898Z,2.80
2019-04-29T05:32:00.094Z,2.80
2019-04-29T05:32:36.330Z,3.00
2019-04-29T05:33:12.390Z,2.80
2019-04-29T05:33:48.466Z,2.30
2019-04-29T05:34:26.438Z,2.50
2019-04-29T05:35:04.743Z,2.67
2019-04-29T05:36:05.868Z,3.10
2019-04-29T05:36:48.652Z,3.00
2019-04-29T05:37:49.179Z,2.63
2019-04-29T05:38:49.817Z,3.50
2019-04-29T05:39:29.429Z,2.43
2019-04-29T05:40:05.596Z,2.80
2019-04-29T05:40:44.233Z,3.17
2019-04-29T05:41:21.198Z,2.83
2019-04-29T05:41:57.186Z,2.80
2019-04-29T05:42:33.181Z,3.10
2019-04-29T05:43:11.409Z,3.37
2019-04-29T05:43:57.123Z,2.50
2019-04-29T05:44:54.889Z,2.83
2019-04-29T05:45:36.931Z,2.90
2019-04-29T05:46:23.243Z,2.40
2019-04-29T05:47:18.309Z,2.60
2019-04-29T05:48:01.667Z,3.00
2019-04-29T05:48:37.807Z,2.67
2019-04-29T05:49:15.927Z,2.93
2019-04-29T05:50:11.978Z,2.47
2019-04-29T05:50:58.105Z,2.33
2019-04-29T05:51:49.029Z,4.30
2019-04-29T05:52:42.103Z,2.80
2019-04-29T05:53:22.165Z,3.03
2019-04-29T05:53:59.462Z,2.67
2019-04-29T05:54:36.249Z,3.87
2019-04-29T05:55:13.714Z,2.90
2019-04-29T05:55:52.654Z,3.83
2019-04-29T05:56:28.841Z,2.73
2019-04-29T05:57:04.985Z,3.57
2019-04-29T05:57:41.166Z,3.10
2019-04-29T05:58:17.162Z,3.20
2019-04-29T05:58:53.411Z,3.23
2019-04-29T05:59:29.503Z,3.40
2019-04-29T06:00:06.071Z,2.80
2019-04-29T06:00:54.310Z,3.60
2019-04-29T06:01:31.836Z,3.10
2019-04-29T06:02:08.012Z,3.13
2019-04-29T06:02:44.065Z,2.97
2019-04-29T06:03:22.214Z,3.33
2019-04-29T06:03:58.297Z,4.10
2019-04-29T06:04:34.377Z,3.13
2019-04-29T06:05:10.589Z,3.10
2019-04-29T06:05:46.716Z,3.20
2019-04-29T06:06:22.939Z,4.03
2019-04-29T06:06:59.312Z,4.10
2019-04-29T06:07:35.301Z,3.43
2019-04-29T06:08:11.478Z,3.10
2019-04-29T06:08:47.566Z,3.47
2019-04-29T06:09:23.658Z,3.77
2019-04-29T06:09:59.708Z,3.80
2019-04-29T06:10:35.799Z,3.83
2019-04-29T06:11:12.010Z,2.73
2019-04-29T06:11:49.648Z,3.27
2019-04-29T06:12:25.865Z,3.37
2019-04-29T06:13:01.957Z,3.33
2019-04-29T06:13:39.503Z,4.23
2019-04-29T06:14:15.571Z,3.07
2019-04-29T06:14:51.692Z,3.70
2019-04-29T06:15:27.750Z,3.30
2019-04-29T06:16:03.767Z,3.40
2019-04-29T06:16:39.857Z,3.73
2019-04-29T06:17:16.024Z,4.40
2019-04-29T06:17:52.105Z,4.43
2019-04-29T06:18:28.172Z,3.30
2019-04-29T06:19:06.056Z,3.30
2019-04-29T06:19:42.136Z,3.80
2019-04-29T06:20:22.616Z,3.37
2019-04-29T06:21:08.215Z,3.33
2019-04-29T06:21:35.208Z,2.90
2019-04-29T06:22:11.315Z,4.27
2019-04-29T06:22:47.377Z,3.50
2019-04-29T06:23:24.327Z,2.97
2019-04-29T06:24:04.513Z,4.00
2019-04-29T06:24:41.099Z,3.50
2019-04-29T06:25:16.187Z,4.27
2019-04-29T06:25:52.293Z,4.23
2019-04-29T06:26:28.448Z,3.77
2019-04-29T06:27:04.524Z,3.57
2019-04-29T06:27:40.571Z,3.80
2019-04-29T06:28:16.683Z,4.00
2019-04-29T06:28:52.762Z,3.50
2019-04-29T06:29:28.981Z,3.27
2019-04-29T06:30:05.334Z,4.10
2019-04-29T06:30:45.242Z,4.00
2019-04-29T06:31:19.494Z,3.60
2019-04-29T06:31:55.611Z,3.90
2019-04-29T06:32:31.737Z,3.83
2019-04-29T06:33:07.870Z,4.37
2019-04-29T06:33:43.956Z,4.70
2019-04-29T06:34:20.022Z,4.43
2019-04-29T06:34:56.038Z,3.90
2019-04-29T06:35:32.147Z,4.27
2019-04-29T06:36:08.347Z,4.10
2019-04-29T06:36:44.615Z,3.63
2019-04-29T06:37:20.626Z,3.47
2019-04-29T06:37:56.706Z,3.77
2019-04-29T06:38:32.729Z,4.03
2019-04-29T06:39:09.383Z,3.83
2019-04-29T06:39:45.452Z,3.83
2019-04-29T06:40:21.569Z,3.30
2019-04-29T06:40:57.604Z,4.27
2019-04-29T06:41:33.711Z,4.10
2019-04-29T06:42:09.786Z,4.30
2019-04-29T06:42:49.432Z,4.07
2019-04-29T06:43:28.670Z,3.80
2019-04-29T06:44:15.836Z,3.60
2019-04-29T06:44:44.480Z,3.63
2019-04-29T06:45:22.004Z,4.30
2019-04-29T06:45:58.054Z,4.77
2019-04-29T06:46:34.272Z,4.37
2019-04-29T06:47:10.531Z,5.53
2019-04-29T06:47:49.059Z,4.27
2019-04-29T06:48:25.094Z,5.17
2019-04-29T06:49:10.009Z,4.60
2019-04-29T06:49:39.015Z,4.73
2019-04-29T06:50:16.132Z,5.20
2019-04-29T06:50:52.254Z,4.53
2019-04-29T06:51:28.305Z,4.50
2019-04-29T06:52:04.302Z,4.30
2019-04-29T06:52:40.419Z,4.20
2019-04-29T06:53:21.441Z,3.90
2019-04-29T06:53:56.495Z,4.57
2019-04-29T06:54:32.495Z,4.97
2019-04-29T06:55:08.707Z,4.70
2019-04-29T06:55:45.452Z,4.60
2019-04-29T06:56:21.550Z,4.40
2019-04-29T06:56:57.754Z,4.43
2019-04-29T06:57:33.763Z,5.03
2019-04-29T06:58:09.837Z,4.27
2019-04-29T06:58:48.979Z,4.47
2019-04-29T06:59:23.685Z,4.53
2019-04-29T06:59:59.823Z,4.40
2019-04-29T07:00:35.931Z,3.87
2019-04-29T07:01:12.152Z,4.00
2019-04-29T07:01:48.280Z,4.57
2019-04-29T07:02:24.605Z,4.20
2019-04-29T07:03:00.871Z,3.70
2019-04-29T07:03:37.064Z,4.40
2019-04-29T07:04:13.056Z,3.67
2019-04-29T07:04:49.112Z,3.90
2019-04-29T07:05:26.210Z,3.87
2019-04-29T07:06:02.355Z,4.90
2019-04-29T07:06:38.526Z,3.30
2019-04-29T07:07:17.667Z,3.53
2019-04-29T07:07:53.830Z,4.20
2019-04-29T07:08:29.913Z,4.00
2019-04-29T07:09:07.348Z,4.13
2019-04-29T07:09:43.415Z,3.80
2019-04-29T07:10:26.910Z,4.63
2019-04-29T07:11:01.003Z,4.20
2019-04-29T07:11:38.449Z,3.67
2019-04-29T07:12:14.736Z,3.97
2019-04-29T07:12:50.801Z,4.20
2019-04-29T07:13:27.014Z,4.87
2019-04-29T07:14:04.732Z,4.70
2019-04-29T07:14:40.985Z,4.27
2019-04-29T07:15:17.303Z,4.30
2019-04-29T07:15:53.394Z,4.03
2019-04-29T07:16:31.928Z,5.00
2019-04-29T07:17:07.326Z,3.70
2019-04-29T07:17:43.339Z,4.53
2019-04-29T07:18:19.448Z,4.50
2019-04-29T07:18:55.568Z,3.87
2019-04-29T07:19:31.728Z,4.43
2019-04-29T07:20:08.049Z,4.37
2019-04-29T07:20:45.630Z,4.67
2019-04-29T07:21:23.675Z,4.07
2019-04-29T07:21:59.756Z,4.03
2019-04-29T07:22:35.836Z,4.20
2019-04-29T07:23:11.914Z,4.23
2019-04-29T07:23:48.004Z,4.70
2019-04-29T07:24:24.087Z,3.70
2019-04-29T07:25:00.166Z,5.00
2019-04-29T07:25:36.255Z,3.70
2019-04-29T07:26:12.374Z,4.67
2019-04-29T07:26:48.517Z,3.60
2019-04-29T07:27:24.688Z,4.03
2019-04-29T07:28:00.891Z,4.27
2019-04-29T07:28:36.999Z,3.67
2019-04-29T07:29:13.034Z,3.93
2019-04-29T07:29:48.977Z,4.07
2019-04-29T07:30:25.171Z,4.03
2019-04-29T07:31:02.994Z,3.57
2019-04-29T07:31:39.166Z,4.40
2019-04-29T07:32:15.335Z,4.13
2019-04-29T07:32:51.412Z,4.00
2019-04-29T07:33:27.510Z,3.97
2019-04-29T07:34:03.697Z,3.43
2019-04-29T07:34:39.838Z,3.63
2019-04-29T07:35:16.025Z,3.33
2019-04-29T07:35:52.113Z,3.87
2019-04-29T07:36:28.162Z,4.00
2019-04-29T07:37:04.378Z,4.00
2019-04-29T07:37:40.523Z,3.77
2019-04-29T07:38:16.637Z,4.30
2019-04-29T07:38:56.603Z,3.60
2019-04-29T07:39:31.633Z,3.80
2019-04-29T07:40:09.397Z,4.30
2019-04-29T07:40:47.978Z,3.73
2019-04-29T07:41:24.129Z,4.20
2019-04-29T07:42:03.195Z,4.07
2019-04-29T07:42:38.156Z,3.80
2019-04-29T07:43:14.384Z,3.60
2019-04-29T07:43:50.467Z,4.63
2019-04-29T07:44:42.705Z,4.43
2019-04-29T07:45:43.661Z,3.70
2019-04-29T07:46:25.908Z,4.10
2019-04-29T07:47:02.555Z,3.70
2019-04-29T07:47:40.144Z,4.17
2019-04-29T07:48:16.829Z,4.00
2019-04-29T07:49:01.487Z,3.80
2019-04-29T07:49:30.816Z,3.90
2019-04-29T07:50:07.095Z,4.60
2019-04-29T07:50:43.268Z,4.83
2019-04-29T07:51:22.224Z,4.17
2019-04-29T07:51:58.331Z,4.30
2019-04-29T07:52:34.542Z,3.77
2019-04-29T07:53:10.745Z,4.03
2019-04-29T07:53:46.882Z,3.73
2019-04-29T07:54:23.035Z,3.83
2019-04-29T07:55:00.639Z,4.10
2019-04-29T07:55:36.708Z,4.50
2019-04-29T07:56:12.838Z,4.23
2019-04-29T07:56:51.438Z,4.60
2019-04-29T07:57:27.491Z,4.30
2019-04-29T07:58:03.613Z,4.03
2019-04-29T07:58:39.738Z,4.20
2019-04-29T07:59:15.735Z,4.57
2019-04-29T07:59:51.791Z,4.77
2019-04-29T08:00:35.143Z,5.07
2019-04-29T08:01:11.174Z,5.27
2019-04-29T08:01:47.241Z,4.47
2019-04-29T08:02:23.406Z,4.03
2019-04-29T08:02:59.512Z,3.93
2019-04-29T08:03:35.701Z,4.87
2019-04-29T08:04:11.874Z,5.60
2019-04-29T08:04:47.873Z,4.00
2019-04-29T08:05:23.827Z,4.30
2019-04-29T08:06:00.023Z,4.23
2019-04-29T08:06:38.110Z,4.23
2019-04-29T08:07:14.815Z,4.27
2019-04-29T08:07:51.269Z,3.40
2019-04-29T08:08:27.465Z,4.33
2019-04-29T08:09:08.019Z,3.83
2019-04-29T08:09:44.273Z,3.20
2019-04-29T08:10:23.616Z,4.07
2019-04-29T08:10:59.579Z,3.93
2019-04-29T08:11:35.817Z,3.90
2019-04-29T08:12:12.688Z,3.93
2019-04-29T08:12:49.787Z,4.07
2019-04-29T08:13:27.351Z,3.37
2019-04-29T08:14:03.662Z,3.63
2019-04-29T08:14:40.819Z,2.90
2019-04-29T08:15:16.993Z,3.30
2019-04-29T08:15:53.053Z,3.80
2019-04-29T08:16:29.170Z,3.50
2019-04-29T08:17:05.375Z,3.27
2019-04-29T08:17:41.476Z,3.60
2019-04-29T08:18:18.246Z,3.60
2019-04-29T08:18:54.912Z,4.13
2019-04-29T08:19:31.647Z,4.13
2019-04-29T08:20:08.586Z,3.20
2019-04-29T08:20:44.669Z,4.40
2019-04-29T08:21:20.761Z,3.20
2019-04-29T08:21:56.878Z,3.23
2019-04-29T08:22:32.977Z,4.40
2019-04-29T08:23:09.100Z,3.10
2019-04-29T08:23:45.150Z,3.50
2019-04-29T08:24:21.444Z,3.30
2019-04-29T08:24:57.625Z,3.70
2019-04-29T08:25:33.844Z,3.50
2019-04-29T08:26:10.007Z,4.70
2019-04-29T08:26:47.674Z,3.50
2019-04-29T08:27:23.829Z,3.43
2019-04-29T08:28:02.453Z,3.93
2019-04-29T08:28:38.602Z,3.73
2019-04-29T08:29:14.707Z,3.83